| time (UTC) | temp F | wind direction | speed knots | gust knots | rain 1hr in | rain 24hr in | rain mn in | humidity % | barometer mb |
| 20260507050418 | 66 | 0.0 | 0.0 | 0.00 | 0.00 | 0.00 | 65 | 1009.9 | |
| 20260507045030 | 64 | 0.0 | 0.0 | 0.00 | 0.00 | 0.00 | 74 | 1009.8 | |
| 20260507043647 | 64 | 0.0 | 0.0 | 0.00 | 0.00 | 0.00 | 74 | 1009.7 | |
| 20260507042306 | 63 | 0.0 | 0.0 | 0.00 | 0.00 | 0.00 | 78 | 1009.6 | |
| 20260507040918 | 62 | 0.0 | 0.0 | 0.00 | 0.00 | 0.00 | 77 | 1009.7 | |
| 20260507035533 | 62 | 0.0 | 0.0 | 0.00 | 0.00 | 0.00 | 79 | 1009.4 | |
| 20260507034149 | 62 | 0.0 | 0.0 | 0.00 | 0.00 | 0.00 | 80 | 1009.3 | |
| 20260507032805 | 61 | 0.0 | 0.0 | 0.00 | 0.00 | 0.00 | 85 | 1009.5 | |
| 20260507031421 | 61 | 0.0 | 0.0 | 0.00 | 0.00 | 0.00 | 86 | 1009.6 | |
| 20260507030037 | 60 | 0.0 | 0.0 | 0.00 | 0.00 | 0.00 | 94 | 1009.6 | |
| 20260507024653 | 59 | 0.0 | 0.0 | 0.00 | 0.00 | 0.00 | 10 | 1009.7 | |
| 20260507023311 | 60 | 0.0 | 0.0 | 0.00 | 0.00 | 0.00 | 93 | 1009.7 | |
| 20260507021927 | 60 | 0.0 | 0.0 | 0.00 | 0.00 | 0.00 | 93 | 1009.5 | |
| 20260507020544 | 60 | 0.0 | 0.0 | 0.00 | 0.00 | 0.00 | 93 | 1009.5 | |
| 20260507015201 | 60 | 0.0 | 0.0 | 0.00 | 0.00 | 0.00 | 93 | 1009.6 | |
| 20260507013816 | 60 | 0.0 | 0.0 | 0.00 | 0.00 | 0.00 | 95 | 1009.7 | |
| 20260507012432 | 60 | 0.0 | 0.0 | 0.00 | 0.00 | 0.00 | 98 | 1009.7 | |
| 20260507011046 | 58 | 0.0 | 0.0 | 0.00 | 0.00 | 0.00 | 10 | 1009.8 | |
| 20260507005703 | 57 | 0.0 | 0.0 | 0.00 | 0.00 | 0.00 | 10 | 1009.9 | |
| 20260507004319 | 58 | 0.0 | 0.0 | 0.00 | 0.00 | 0.00 | 10 | 1009.9 | |
| 20260507002936 | 58 | 0.0 | 0.0 | 0.00 | 0.00 | 0.00 | 10 | 1009.9 | |
| 20260507001553 | 58 | 0.0 | 0.0 | 0.00 | 0.00 | 0.00 | 10 | 1010.0 | |
| 20260507000212 | 58 | 0.0 | 0.0 | 0.00 | 0.00 | 0.00 | 10 | 1010.0 | |
| 20260506234827 | 58 | 0.0 | 0.0 | 0.00 | 0.00 | 0.00 | 10 | 1010.0 | |
| 20260506233444 | 59 | 0.0 | 0.0 | 0.00 | 0.00 | 0.00 | 10 | 1010.2 | |
| 20260506230717 | 59 | 0.0 | 0.0 | 0.00 | 0.00 | 0.00 | 93 | 1010.2 | |
| 20260506225334 | 59 | 0.0 | 0.0 | 0.00 | 0.00 | 0.00 | 93 | 1010.2 | |
| 20260506223950 | 60 | 0.0 | 0.0 | 0.00 | 0.00 | 0.00 | 93 | 1010.3 | |
| 20260506222607 | 60 | 0.0 | 0.0 | 0.00 | 0.00 | 0.00 | 92 | 1010.2 | |
| 20260506221223 | 60 | 0.0 | 0.0 | 0.00 | 0.00 | 0.00 | 90 | 1010.2 | |
| 20260506215841 | 60 | 0.0 | 0.0 | 0.00 | 0.00 | 0.00 | 92 | 1010.1 | |
| 20260506214456 | 60 | 0.0 | 0.0 | 0.00 | 0.00 | 0.00 | 90 | 1010.1 | |
| 20260506213113 | 60 | 0.0 | 0.0 | 0.00 | 0.00 | 0.00 | 89 | 1010.1 | |
| 20260506211729 | 61 | 0.0 | 0.0 | 0.00 | 0.00 | 0.00 | 88 | 1010.0 | |
| 20260506210347 | 61 | 0.0 | 0.0 | 0.00 | 0.00 | 0.00 | 87 | 1010.0 | |
| 20260506205004 | 61 | 0.0 | 0.0 | 0.00 | 0.00 | 0.00 | 83 | 1009.9 | |
| 20260506203622 | 62 | 0.0 | 0.0 | 0.00 | 0.00 | 0.00 | 80 | 1009.9 | |
| 20260506202241 | 62 | 0.0 | 0.0 | 0.00 | 0.00 | 0.00 | 78 | 1009.9 | |
| 20260506200856 | 63 | 0.0 | 0.0 | 0.00 | 0.00 | 0.00 | 74 | 1009.7 | |
| 20260506195508 | 64 | 0.0 | 0.0 | 0.00 | 0.00 | 0.00 | 69 | 1009.8 | |
| 20260506194126 | 64 | 0.0 | 0.0 | 0.00 | 0.00 | 0.00 | 66 | 1010.0 | |
| 20260506192742 | 65 | 0.0 | 0.0 | 0.00 | 0.00 | 0.00 | 64 | 1009.8 | |
| 20260506191359 | 65 | 0.0 | 0.0 | 0.00 | 0.00 | 0.00 | 62 | 1009.8 | |
| 20260506190019 | 66 | 0.0 | 0.0 | 0.00 | 0.00 | 0.00 | 61 | 1009.8 | |
| 20260506184634 | 66 | 0.0 | 0.0 | 0.00 | 0.00 | 0.00 | 59 | 1009.5 | |
| 20260506183251 | 67 | 0.0 | 0.0 | 0.00 | 0.00 | 0.00 | 57 | 1009.3 | |
| 20260506181906 | 68 | 0.0 | 0.0 | 0.00 | 0.00 | 0.00 | 55 | 1009.1 | |
| 20260506180521 | 69 | 0.0 | 0.0 | 0.00 | 0.00 | 0.00 | 51 | 1008.8 | |
| 20260506175138 | 70 | 0.0 | 0.0 | 0.00 | 0.00 | 0.00 | 48 | 1008.6 | |
| 20260506173755 | 72 | 0.0 | 0.0 | 0.00 | 0.00 | 0.00 | 45 | 1008.4 | |
| 20260506172411 | 72 | 0.0 | 0.0 | 0.00 | 0.00 | 0.00 | 44 | 1008.3 | |
| 20260506171032 | 73 | 0.0 | 0.0 | 0.00 | 0.00 | 0.00 | 42 | 1008.2 | |
| 20260506165646 | 74 | 0.0 | 0.0 | 0.00 | 0.00 | 0.00 | 41 | 1008.0 | |
| 20260506164302 | 75 | 0.0 | 0.0 | 0.00 | 0.00 | 0.00 | 38 | 1007.8 | |
| 20260506162919 | 76 | 0.0 | 0.0 | 0.00 | 0.00 | 0.00 | 37 | 1007.8 | |
| 20260506161536 | 76 | 0.0 | 0.0 | 0.00 | 0.00 | 0.00 | 35 | 1007.7 | |
| 20260506160155 | 78 | 0.0 | 0.0 | 0.00 | 0.00 | 0.00 | 34 | 1007.5 | |
| 20260506154813 | 79 | 0.0 | 0.0 | 0.00 | 0.00 | 0.00 | 32 | 1007.4 | |
| 20260506153432 | 82 | 0.0 | 0.0 | 0.00 | 0.00 | 0.00 | 30 | 1007.2 | |
| 20260506152045 | 80 | 0.0 | 0.0 | 0.00 | 0.00 | 0.00 | 31 | 1007.3 | |
| 20260506150702 | 80 | 0.0 | 0.0 | 0.00 | 0.00 | 0.00 | 30 | 1007.2 | |
| 20260506145321 | 82 | 0.0 | 0.0 | 0.00 | 0.00 | 0.00 | 29 | 1007.0 | |
| 20260506143936 | 81 | 0.0 | 0.0 | 0.00 | 0.00 | 0.00 | 28 | 1007.0 | |
| 20260506142554 | 81 | 0.0 | 0.0 | 0.00 | 0.00 | 0.00 | 26 | 1006.9 | |
| 20260506141212 | 84 | 0.0 | 0.0 | 0.00 | 0.00 | 0.00 | 24 | 1006.5 | |
| 20260506135828 | 85 | 0.0 | 0.0 | 0.00 | 0.00 | 0.00 | 23 | 1006.6 | |
| 20260506134442 | 84 | 0.0 | 0.0 | 0.00 | 0.00 | 0.00 | 23 | 1006.4 | |
| 20260506133058 | 83 | 0.0 | 0.0 | 0.00 | 0.00 | 0.00 | 24 | 1006.5 | |
| 20260506131711 | 82 | 0.0 | 0.0 | 0.00 | 0.00 | 0.00 | 24 | 1006.7 | |
| 20260506130329 | 83 | 0.0 | 0.0 | 0.00 | 0.00 | 0.00 | 23 | 1006.8 | |
| 20260506124945 | 85 | 0.0 | 0.0 | 0.00 | 0.00 | 0.00 | 22 | 1006.9 | |
| 20260506123557 | 83 | 0.0 | 0.0 | 0.00 | 0.00 | 0.00 | 23 | 1006.9 | |
| 20260506122220 | 86 | 0.0 | 0.0 | 0.00 | 0.00 | 0.00 | 20 | 1006.8 | |
| 20260506120841 | 89 | 0.0 | 0.0 | 0.00 | 0.00 | 0.00 | 22 | 1006.7 | |
| 20260506115441 | 93 | 0.0 | 0.0 | 0.00 | 0.00 | 0.00 | 20 | 1006.7 | |
| 20260506114055 | 90 | 0.0 | 0.0 | 0.00 | 0.00 | 0.00 | 22 | 1007.0 | |
| 20260506112712 | 84 | 0.0 | 0.0 | 0.00 | 0.00 | 0.00 | 26 | 1007.5 | |
| 20260506111334 | 86 | 0.0 | 0.0 | 0.00 | 0.00 | 0.00 | 24 | 1007.7 | |
| 20260506105944 | 85 | 0.0 | 0.0 | 0.00 | 0.00 | 0.00 | 25 | 1007.9 | |
| 20260506104558 | 84 | 0.0 | 0.0 | 0.00 | 0.00 | 0.00 | 27 | 1008.2 | |
| 20260506103213 | 84 | 0.0 | 0.0 | 0.00 | 0.00 | 0.00 | 31 | 1008.1 | |
| 20260506101829 | 83 | 0.0 | 0.0 | 0.00 | 0.00 | 0.00 | 32 | 1008.4 | |
| 20260506100455 | 93 | 0.0 | 0.0 | 0.00 | 0.00 | 0.00 | 25 | 1008.3 | |
| 20260506095106 | 85 | 0.0 | 0.0 | 0.00 | 0.00 | 0.00 | 31 | 1008.6 | |
| 20260506093721 | 84 | 0.0 | 0.0 | 0.00 | 0.00 | 0.00 | 33 | 1008.9 | |
| 20260506092349 | 86 | 0.0 | 0.0 | 0.00 | 0.00 | 0.00 | 30 | 1008.8 | |
| 20260506091007 | 91 | 0.0 | 0.0 | 0.00 | 0.00 | 0.00 | 26 | 1008.8 | |
| 20260506085638 | 113 | 0.0 | 0.0 | 0.00 | 0.00 | 0.00 | 14 | 1008.2 | |
| 20260506084300 | 115 | 0.0 | 0.0 | 0.00 | 0.00 | 0.00 | 14 | 1008.4 | |
| 20260506082912 | 112 | 0.0 | 0.0 | 0.00 | 0.00 | 0.00 | 15 | 1008.3 | |
| 20260506081521 | 106 | 0.0 | 0.0 | 0.00 | 0.00 | 0.00 | 18 | 1008.7 | |
| 20260506080148 | 110 | 0.0 | 0.0 | 0.00 | 0.00 | 0.00 | 16 | 1008.5 | |
| 20260506073329 | 84 | 0.0 | 0.0 | 0.00 | 0.00 | 0.00 | 35 | 1009.4 | |
| 20260506071945 | 76 | 0.0 | 0.0 | 0.00 | 0.00 | 0.00 | 43 | 1009.9 | |
| 20260506070624 | 91 | 0.0 | 0.0 | 0.00 | 0.00 | 0.00 | 27 | 1009.5 | |
| 20260506062436 | 65 | 0.0 | 0.0 | 0.00 | 0.00 | 0.00 | 69 | 1010.6 | |
| 20260506061051 | 65 | 0.0 | 0.0 | 0.00 | 0.00 | 0.00 | 70 | 1010.7 |